Time;durP1;ratioP1;P1;durP2;ratioP2;P2;SDS_P1;SDS_P2;PMS_P1;PMS_P2;Temp;Humidity;BMP_temperature;BMP_pressure;BME280_temperature;BME280_humidity;BME280_pressure;Samples;Min_cycle;Max_cycle;Signal;HPM_P1;HPM_P2
2022/01/12 00:00:54;;;;;;;55.67;31.77;;;-1.20;1.00;;;;;;5003437;28;20246;-80
2022/01/12 00:03:21;;;;;;;50.50;28.63;;;-1.20;1.00;;;;;;5012568;28;20227;-78
2022/01/12 00:05:49;;;;;;;52.03;31.65;;;-1.10;1.00;;;;;;5023132;28;20238;-77
2022/01/12 00:08:17;;;;;;;57.10;29.25;;;-1.20;1.00;;;;;;5006390;28;20230;-79
2022/01/12 00:10:44;;;;;;;50.65;30.35;;;-1.20;1.00;;;;;;5004866;28;20417;-79
2022/01/12 00:13:11;;;;;;;46.30;30.15;;;-1.20;1.00;;;;;;5001209;28;20269;-80
2022/01/12 00:15:38;;;;;;;50.55;30.33;;;-1.20;1.00;;;;;;5003757;28;20228;-77
2022/01/12 00:18:05;;;;;;;49.15;29.48;;;-1.10;1.00;;;;;;5002933;28;20254;-80
2022/01/12 00:20:32;;;;;;;43.15;27.45;;;-1.10;1.00;;;;;;5005483;28;20264;-79
2022/01/12 00:22:59;;;;;;;48.55;28.73;;;-1.10;1.00;;;;;;5012936;28;20283;-78
2022/01/12 00:25:33;;;;;;;49.10;28.85;;;-1.10;1.00;;;;;;5021409;28;20224;-79
2022/01/12 00:33:31;;;;;;;50.15;29.73;;;-1.10;1.00;;;;;;5003832;28;20250;-79
2022/01/12 00:35:59;;;;;;;48.28;28.42;;;-1.10;1.00;;;;;;5003185;28;20234;-80
2022/01/12 00:38:29;;;;;;;52.50;30.52;;;-1.20;1.00;;;;;;5006633;28;20231;-79
2022/01/12 00:41:00;;;;;;;53.80;30.70;;;-1.20;1.00;;;;;;5004303;28;20234;-80
2022/01/12 00:43:29;;;;;;;58.42;31.42;;;-1.30;1.00;;;;;;5019988;28;20237;-78
2022/01/12 00:45:56;;;;;;;52.53;29.38;;;-1.30;1.00;;;;;;5001290;28;20225;-81
2022/01/12 00:48:24;;;;;;;52.83;29.50;;;-1.30;1.00;;;;;;5006491;28;20234;-81
2022/01/12 00:50:51;;;;;;;52.13;30.73;;;-1.20;1.00;;;;;;5003247;28;20343;-80
2022/01/12 00:53:18;;;;;;;48.40;28.80;;;-1.20;1.00;;;;;;4999435;28;20294;-79
2022/01/12 00:55:45;;;;;;;53.03;29.05;;;-1.20;1.00;;;;;;5000602;28;20235;-80
2022/01/12 00:58:14;;;;;;;55.95;30.45;;;-1.20;1.00;;;;;;5000503;28;20378;-81
2022/01/12 01:00:41;;;;;;;47.05;29.38;;;-1.20;1.00;;;;;;5001353;28;20214;-80
2022/01/12 01:03:09;;;;;;;52.03;31.15;;;-1.10;1.00;;;;;;5001696;28;20230;-79
2022/01/12 01:05:36;;;;;;;53.47;31.50;;;-1.10;1.00;;;;;;5002611;28;20237;-78
2022/01/12 01:08:03;;;;;;;49.45;30.40;;;-1.00;1.00;;;;;;4998173;28;20279;-78
2022/01/12 01:10:45;;;;;;;57.05;30.48;;;-1.00;1.00;;;;;;5014783;28;20246;-85
2022/01/12 01:13:15;;;;;;;45.53;26.25;;;-1.00;1.00;;;;;;5008453;28;20249;-87
2022/01/12 01:15:58;;;;;;;40.63;24.33;;;-1.00;1.00;;;;;;5020088;28;20237;-83
2022/01/12 01:26:43;;;;;;;40.95;24.80;;;-1.00;1.00;;;;;;5002976;28;20313;-83
2022/01/12 01:29:13;;;;;;;48.80;26.30;;;-1.10;1.00;;;;;;5011494;28;20282;-82
2022/01/12 01:31:43;;;;;;;42.85;24.55;;;-1.10;1.00;;;;;;5002705;28;20858;-79
2022/01/12 01:34:12;;;;;;;49.75;25.35;;;-1.20;1.00;;;;;;5003608;28;20234;-79
2022/01/12 01:36:42;;;;;;;44.83;25.95;;;-1.20;1.00;;;;;;5004177;28;20231;-81
2022/01/12 01:39:11;;;;;;;44.60;25.30;;;-1.10;1.00;;;;;;4999184;28;20282;-79
2022/01/12 01:41:41;;;;;;;46.60;26.80;;;-1.00;1.00;;;;;;5003129;28;20278;-79
2022/01/12 01:55:26;;;;;;;51.30;27.52;;;-1.00;1.00;;;;;;5003736;28;20243;-78
2022/01/12 01:57:54;;;;;;;44.97;24.55;;;-1.00;1.00;;;;;;4990194;28;20263;-82
2022/01/12 02:00:26;;;;;;;44.80;25.77;;;-0.90;1.00;;;;;;4994890;28;20227;-80
2022/01/12 02:02:56;;;;;;;50.33;26.42;;;-0.90;1.00;;;;;;4996769;28;21007;-81
2022/01/12 02:05:23;;;;;;;47.53;26.20;;;-0.80;1.00;;;;;;5006203;28;20491;-79
2022/01/12 02:07:51;;;;;;;49.80;27.42;;;-0.80;1.00;;;;;;4998259;28;20238;-81
2022/01/12 02:10:18;;;;;;;44.08;23.92;;;-0.80;1.00;;;;;;5007119;28;20322;-80
2022/01/12 02:12:46;;;;;;;45.90;26.13;;;-0.80;1.00;;;;;;4997371;28;20233;-81
2022/01/12 02:15:19;;;;;;;44.08;24.33;;;-0.80;1.00;;;;;;4998195;28;20227;-83
2022/01/12 02:18:06;;;;;;;45.92;24.00;;;-0.70;1.00;;;;;;5001255;28;20238;-78
2022/01/12 02:39:43;;;;;;;42.70;22.95;;;-0.70;1.00;;;;;;5000797;28;20922;-81
2022/01/12 02:40:07;;;;;;;45.25;23.27;;;-0.70;1.00;;;;;;5006807;28;20234;-80
2022/01/12 02:42:36;;;;;;;39.83;22.60;;;-0.80;1.00;;;;;;5009743;28;20261;-79
2022/01/12 02:50:46;;;;;;;46.28;24.95;;;-0.70;1.00;;;;;;5005920;28;20230;-81
2022/01/12 02:56:00;;;;;;;48.05;25.58;;;-0.60;1.00;;;;;;5003852;28;20332;-77
2022/01/12 02:58:27;;;;;;;49.10;25.10;;;-0.50;1.00;;;;;;4996379;28;20760;-80
2022/01/12 03:01:18;;;;;;;57.45;24.42;;;-0.50;1.00;;;;;;5003207;28;20229;-80
2022/01/12 03:03:48;;;;;;;47.63;25.48;;;-0.50;1.00;;;;;;5004764;28;20344;-87
2022/01/12 03:06:18;;;;;;;45.08;24.15;;;-0.50;1.00;;;;;;5000632;28;20279;-85
2022/01/12 03:08:46;;;;;;;42.67;23.33;;;-0.50;1.00;;;;;;4998483;28;20232;-81
2022/01/12 03:11:17;;;;;;;46.03;23.95;;;-0.40;1.00;;;;;;5014719;28;20326;-82
2022/01/12 03:13:44;;;;;;;44.75;25.88;;;-0.40;1.00;;;;;;5002377;28;20239;-84
2022/01/12 03:16:14;;;;;;;46.28;23.85;;;-0.30;1.00;;;;;;5000077;28;21434;-81
2022/01/12 03:18:42;;;;;;;40.30;24.65;;;-0.30;1.00;;;;;;4996712;28;20601;-85
2022/01/12 03:21:10;;;;;;;45.40;23.77;;;-0.40;1.00;;;;;;5004197;28;20222;-80
2022/01/12 03:23:37;;;;;;;43.03;23.70;;;-0.40;1.00;;;;;;5002825;28;20273;-83
2022/01/12 03:26:05;;;;;;;50.22;23.70;;;-0.40;1.00;;;;;;5007047;28;20230;-84
2022/01/12 03:28:34;;;;;;;50.72;23.75;;;-0.40;1.00;;;;;;5001509;28;20255;-78
2022/01/12 03:31:08;;;;;;;42.03;21.60;;;-0.30;1.00;;;;;;5006566;28;20234;-80
2022/01/12 03:33:51;;;;;;;42.55;23.75;;;-0.40;1.00;;;;;;5001242;28;20226;-80
2022/01/12 03:36:28;;;;;;;46.50;21.40;;;-0.40;1.00;;;;;;5005467;28;20314;-80
2022/01/12 03:38:57;;;;;;;39.75;21.02;;;-0.50;1.00;;;;;;4998737;28;20227;-83
2022/01/12 03:41:26;;;;;;;42.60;22.90;;;-0.50;1.00;;;;;;5006842;28;20211;-84
2022/01/12 03:43:56;;;;;;;47.88;24.08;;;-0.50;1.00;;;;;;4998794;28;20945;-83
2022/01/12 03:46:26;;;;;;;52.75;26.08;;;-0.50;1.00;;;;;;5001090;28;20220;-85
2022/01/12 03:48:52;;;;;;;51.97;25.67;;;-0.40;1.00;;;;;;5000798;28;20960;-82
2022/01/12 03:51:20;;;;;;;45.05;22.15;;;-0.50;1.00;;;;;;5001420;28;20228;-83
2022/01/12 03:53:46;;;;;;;47.92;24.90;;;-0.50;1.00;;;;;;5001986;28;20227;-83
2022/01/12 03:56:13;;;;;;;49.80;25.77;;;-0.50;1.00;;;;;;4997767;28;20233;-84
2022/01/12 03:58:43;;;;;;;49.38;24.35;;;-0.50;1.00;;;;;;5002662;28;20219;-86
2022/01/12 04:01:12;;;;;;;50.67;24.38;;;-0.40;1.00;;;;;;5021158;28;20253;-85
2022/01/12 04:03:42;;;;;;;46.72;24.05;;;-0.50;1.00;;;;;;5010851;28;20300;-83
2022/01/12 04:08:54;;;;;;;47.15;26.05;;;-0.50;1.00;;;;;;4997283;28;20227;-84
2022/01/12 04:11:21;;;;;;;51.42;25.58;;;-0.50;1.00;;;;;;5000745;28;20223;-82
2022/01/12 04:13:50;;;;;;;46.85;24.05;;;-0.40;1.00;;;;;;4997124;28;20305;-83
2022/01/12 04:16:18;;;;;;;51.00;24.75;;;-0.40;1.00;;;;;;5003192;28;20231;-82
2022/01/12 04:18:45;;;;;;;52.70;26.95;;;-0.30;1.00;;;;;;5001128;28;20236;-82
2022/01/12 04:21:13;;;;;;;49.53;24.17;;;-0.30;1.00;;;;;;5003706;28;20356;-83
2022/01/12 04:23:42;;;;;;;55.97;26.73;;;-0.30;1.00;;;;;;5006008;28;20312;-84
2022/01/12 04:26:13;;;;;;;50.47;26.25;;;-0.30;1.00;;;;;;5005724;28;20874;-83
2022/01/12 04:28:42;;;;;;;49.47;25.13;;;-0.30;1.00;;;;;;4999543;28;20278;-80
2022/01/12 04:31:11;;;;;;;50.45;24.75;;;-0.30;1.00;;;;;;5002527;28;20249;-79
2022/01/12 04:33:41;;;;;;;47.90;25.23;;;-0.30;1.00;;;;;;5002877;28;21095;-79
2022/01/12 04:36:10;;;;;;;48.88;25.55;;;-0.30;1.00;;;;;;4998908;28;20783;-80
2022/01/12 04:38:39;;;;;;;49.00;25.80;;;-0.40;1.00;;;;;;5000720;28;20321;-78
2022/01/12 04:41:10;;;;;;;54.40;27.02;;;-0.40;1.00;;;;;;4999328;28;20700;-79
2022/01/12 04:43:42;;;;;;;48.75;25.33;;;-0.40;1.00;;;;;;4997223;28;20248;-79
2022/01/12 04:46:22;;;;;;;54.25;25.85;;;-0.40;1.00;;;;;;4996480;28;20233;-79
2022/01/12 04:48:56;;;;;;;56.67;29.52;;;-0.50;1.00;;;;;;4999176;28;20239;-80
2022/01/12 04:51:26;;;;;;;58.47;29.05;;;-0.40;1.00;;;;;;5003069;28;20227;-85
2022/01/12 04:53:54;;;;;;;53.08;29.40;;;-0.40;1.00;;;;;;4995073;28;20303;-83
2022/01/12 04:56:21;;;;;;;54.92;27.40;;;-0.40;1.00;;;;;;5001483;28;20386;-84
2022/01/12 04:58:48;;;;;;;53.83;27.88;;;-0.40;1.00;;;;;;5000496;28;20310;-84
2022/01/12 05:01:25;;;;;;;58.88;29.10;;;-0.40;1.00;;;;;;4999640;28;20222;-82
2022/01/12 05:06:54;;;;;;;48.72;24.35;;;-0.30;1.00;;;;;;5009665;28;20245;-81
2022/01/12 05:15:05;;;;;;;55.67;27.00;;;-0.30;1.00;;;;;;5014819;28;20243;-82
2022/01/12 05:17:34;;;;;;;52.67;26.05;;;-0.20;1.00;;;;;;4998150;28;20235;-83
2022/01/12 05:20:02;;;;;;;60.50;27.08;;;-0.20;1.00;;;;;;4993129;28;20338;-85
2022/01/12 05:22:29;;;;;;;50.65;24.80;;;-0.10;1.00;;;;;;5001952;28;20318;-81
2022/01/12 05:24:57;;;;;;;53.35;27.45;;;0.00;1.00;;;;;;5004858;28;20277;-81
2022/01/12 05:27:41;;;;;;;54.67;26.55;;;0.10;1.00;;;;;;5030843;28;20264;-82
2022/01/12 05:30:23;;;;;;;51.15;24.70;;;0.10;1.00;;;;;;5017332;28;20242;-83
2022/01/12 05:33:01;;;;;;;46.72;24.65;;;0.10;1.00;;;;;;5028829;28;20234;-80
2022/01/12 05:35:58;;;;;;;49.70;25.63;;;0.00;1.00;;;;;;5028369;28;20230;-86
2022/01/12 05:38:27;;;;;;;56.00;24.08;;;0.00;1.00;;;;;;5014810;28;20219;-80
2022/01/12 05:40:56;;;;;;;51.08;24.80;;;-0.10;1.00;;;;;;5005511;28;20230;-82
2022/01/12 05:43:26;;;;;;;53.65;24.25;;;0.10;1.00;;;;;;5008511;28;20278;-79
2022/01/12 05:45:54;;;;;;;55.35;26.05;;;0.00;1.00;;;;;;5009015;28;20216;-79
2022/01/12 05:51:08;;;;;;;54.10;25.30;;;0.00;1.00;;;;;;5012682;28;20231;-79
2022/01/12 05:53:35;;;;;;;41.17;24.50;;;0.00;1.00;;;;;;5005827;28;20237;-82
2022/01/12 05:56:02;;;;;;;43.10;23.05;;;0.00;1.00;;;;;;5010592;28;20326;-79
2022/01/12 06:01:37;;;;;;;46.00;23.58;;;-0.10;1.00;;;;;;5039050;28;20218;-86
2022/01/12 06:04:11;;;;;;;43.85;21.95;;;-0.10;1.00;;;;;;5017888;28;20234;-84
2022/01/12 06:06:45;;;;;;;45.92;23.55;;;-0.20;1.00;;;;;;5026224;28;20278;-84
2022/01/12 06:11:59;;;;;;;44.88;22.15;;;-0.10;1.00;;;;;;5027801;23;20247;-82
2022/01/12 06:14:26;;;;;;;48.80;23.83;;;0.00;1.00;;;;;;4991368;28;20235;-84
2022/01/12 06:16:53;;;;;;;40.15;21.08;;;0.00;1.00;;;;;;4986715;28;20256;-85
2022/01/12 06:19:20;;;;;;;39.08;21.27;;;0.00;1.00;;;;;;4989784;28;20251;-84
2022/01/12 06:21:49;;;;;;;45.92;23.55;;;0.00;1.00;;;;;;4991493;28;20275;-83
2022/01/12 06:24:16;;;;;;;40.75;21.42;;;-0.10;1.00;;;;;;4984126;28;21447;-81
2022/01/12 06:26:44;;;;;;;43.25;21.67;;;-0.20;1.00;;;;;;4986798;28;21868;-83
2022/01/12 06:29:26;;;;;;;32.83;20.33;;;-0.10;1.00;;;;;;4989703;28;20517;-80
2022/01/12 06:31:56;;;;;;;37.08;19.67;;;-0.10;1.00;;;;;;4990794;28;20269;-80
2022/01/12 06:34:23;;;;;;;40.65;20.90;;;-0.10;1.00;;;;;;4990989;28;20239;-82
2022/01/12 06:36:51;;;;;;;34.65;19.42;;;-0.10;1.00;;;;;;4988090;28;20231;-82
2022/01/12 06:39:20;;;;;;;37.53;20.27;;;0.00;1.00;;;;;;4987153;28;20215;-80
2022/01/12 06:41:48;;;;;;;38.15;21.83;;;0.00;1.00;;;;;;4997240;28;20220;-79
2022/01/12 06:44:17;;;;;;;33.90;20.25;;;0.00;1.00;;;;;;5009779;28;20290;-85
2022/01/12 06:46:44;;;;;;;36.38;19.63;;;0.00;1.00;;;;;;5009362;28;20254;-85
2022/01/12 06:49:12;;;;;;;41.70;20.52;;;0.00;1.00;;;;;;4990513;28;20235;-78
2022/01/12 06:51:43;;;;;;;42.72;24.00;;;0.10;1.00;;;;;;4993462;28;20228;-80
2022/01/12 06:54:12;;;;;;;34.45;21.00;;;0.00;1.00;;;;;;4993415;28;20317;-81
2022/01/12 06:56:39;;;;;;;38.50;20.23;;;0.00;1.00;;;;;;4990791;28;20215;-81
2022/01/12 06:59:07;;;;;;;46.25;25.73;;;0.00;1.00;;;;;;4989379;28;20239;-83
2022/01/12 07:01:34;;;;;;;41.78;21.88;;;0.00;1.00;;;;;;4986604;28;20232;-85
2022/01/12 07:04:01;;;;;;;40.05;20.35;;;0.10;1.00;;;;;;4981990;28;20243;-83
2022/01/12 07:06:29;;;;;;;41.50;21.38;;;0.10;1.00;;;;;;4983250;28;20796;-82
2022/01/12 07:08:55;;;;;;;35.92;20.67;;;0.10;1.00;;;;;;4981545;28;20230;-82
2022/01/12 07:11:24;;;;;;;36.95;19.90;;;0.10;1.00;;;;;;4980958;28;20227;-81
2022/01/12 07:13:51;;;;;;;41.70;22.02;;;0.20;1.00;;;;;;4982613;28;20231;-80
2022/01/12 07:16:18;;;;;;;42.55;22.15;;;0.20;1.00;;;;;;4980629;28;20247;-80
2022/01/12 07:18:45;;;;;;;35.47;21.92;;;0.20;1.00;;;;;;4983207;28;20314;-79
2022/01/12 07:21:12;;;;;;;41.63;22.77;;;0.30;1.00;;;;;;4989198;28;20227;-79
2022/01/12 07:23:39;;;;;;;46.70;23.65;;;0.30;1.00;;;;;;4983382;28;20378;-81
2022/01/12 07:26:07;;;;;;;39.05;21.42;;;0.30;1.00;;;;;;4988354;28;20405;-81
2022/01/12 07:28:35;;;;;;;40.55;21.15;;;0.30;1.00;;;;;;4979759;28;20764;-82
2022/01/12 07:31:02;;;;;;;39.38;21.73;;;0.30;1.00;;;;;;4987655;28;20224;-79
2022/01/12 07:33:29;;;;;;;41.65;22.15;;;0.30;1.00;;;;;;4983181;28;20222;-80
2022/01/12 07:35:56;;;;;;;37.85;21.83;;;0.40;1.00;;;;;;4986453;28;20230;-82
2022/01/12 07:38:23;;;;;;;40.85;21.40;;;0.30;1.00;;;;;;4994391;28;20231;-80
2022/01/12 07:40:50;;;;;;;43.90;21.45;;;0.30;1.00;;;;;;4993442;28;20227;-81
2022/01/12 07:43:18;;;;;;;41.78;22.83;;;0.40;1.00;;;;;;4985023;28;21033;-82
2022/01/12 07:45:47;;;;;;;44.35;21.85;;;0.40;1.00;;;;;;4998322;28;20228;-79
2022/01/12 07:48:14;;;;;;;39.15;22.55;;;0.50;1.00;;;;;;4996321;28;20236;-77
2022/01/12 07:50:41;;;;;;;41.53;22.00;;;0.60;1.00;;;;;;4985316;28;20551;-79
2022/01/12 07:53:08;;;;;;;43.67;23.33;;;0.70;1.00;;;;;;4983732;28;20716;-79
2022/01/12 07:55:35;;;;;;;44.80;22.88;;;0.70;1.00;;;;;;4989897;28;20273;-78
2022/01/12 07:58:02;;;;;;;44.58;22.00;;;0.80;1.00;;;;;;4988840;28;20256;-78
2022/01/12 08:00:28;;;;;;;44.50;21.10;;;0.90;1.00;;;;;;4995824;28;20302;-78
2022/01/12 08:02:57;;;;;;;44.83;23.73;;;0.90;1.00;;;;;;4998520;28;20286;-82
2022/01/12 08:05:24;;;;;;;45.60;24.38;;;1.00;1.00;;;;;;4981597;28;20661;-81
2022/01/12 08:07:54;;;;;;;41.42;22.25;;;1.00;1.00;;;;;;4993594;28;20332;-81
2022/01/12 08:10:21;;;;;;;38.22;22.30;;;1.10;1.00;;;;;;4993662;28;20314;-81
2022/01/12 08:12:48;;;;;;;39.50;23.25;;;1.10;1.00;;;;;;4994024;28;20333;-82
2022/01/12 08:15:15;;;;;;;44.00;24.55;;;1.20;1.00;;;;;;4991162;28;20231;-82
2022/01/12 08:17:42;;;;;;;42.38;23.58;;;1.20;1.00;;;;;;4987735;28;20219;-81
2022/01/12 08:20:16;;;;;;;49.53;24.10;;;1.20;1.00;;;;;;4985044;28;20334;-81
2022/01/12 08:22:43;;;;;;;45.05;24.27;;;1.30;1.00;;;;;;4981140;28;20259;-82
2022/01/12 08:25:10;;;;;;;46.15;22.92;;;1.40;1.00;;;;;;4981339;28;20434;-79
2022/01/12 08:27:37;;;;;;;43.50;23.10;;;1.50;1.00;;;;;;4984041;28;20269;-81
2022/01/12 08:30:14;;;;;;;42.88;23.42;;;1.50;1.00;;;;;;4973029;28;20250;-79
2022/01/12 08:32:41;;;;;;;44.38;23.58;;;1.60;1.00;;;;;;4988620;28;20251;-80
2022/01/12 08:35:09;;;;;;;45.67;23.30;;;1.60;1.00;;;;;;4990612;28;20246;-80
2022/01/12 08:37:40;;;;;;;44.63;24.77;;;1.60;1.00;;;;;;4989204;28;20338;-79
2022/01/12 08:40:08;;;;;;;45.40;26.63;;;1.60;1.00;;;;;;4990637;28;20306;-80
2022/01/12 08:42:35;;;;;;;44.28;24.33;;;1.70;1.00;;;;;;4990405;28;20839;-81
2022/01/12 08:45:03;;;;;;;47.83;23.75;;;1.80;1.00;;;;;;4988397;28;20267;-78
2022/01/12 08:47:30;;;;;;;42.05;23.30;;;1.80;1.00;;;;;;4981911;28;20275;-78
2022/01/12 08:50:03;;;;;;;51.90;27.98;;;1.90;1.00;;;;;;4977073;28;20234;-78
2022/01/12 08:52:30;;;;;;;46.67;27.42;;;2.00;1.00;;;;;;4972794;28;20275;-77
2022/01/12 08:55:00;;;;;;;45.05;24.55;;;2.10;1.00;;;;;;4981889;28;20226;-78
2022/01/12 08:57:29;;;;;;;42.97;24.30;;;2.20;1.00;;;;;;4992534;28;20231;-79
2022/01/12 08:59:56;;;;;;;43.53;23.45;;;2.20;1.00;;;;;;4985571;28;20242;-80
2022/01/12 09:02:24;;;;;;;43.65;22.27;;;2.20;1.00;;;;;;4986868;28;20220;-79
2022/01/12 09:04:53;;;;;;;44.95;26.08;;;2.30;1.00;;;;;;4982202;28;20240;-79
2022/01/12 09:07:20;;;;;;;41.50;24.33;;;2.20;1.00;;;;;;4983876;28;20243;-79
2022/01/12 09:09:47;;;;;;;42.17;23.52;;;2.20;1.00;;;;;;4982082;28;20310;-79
2022/01/12 09:12:16;;;;;;;42.10;24.70;;;2.40;1.00;;;;;;4984675;28;20228;-81
2022/01/12 09:14:42;;;;;;;45.40;24.15;;;2.40;1.00;;;;;;4983171;28;21187;-80
2022/01/12 09:17:15;;;;;;;44.67;24.75;;;2.50;1.00;;;;;;4992763;28;21486;-77
2022/01/12 09:19:42;;;;;;;42.83;23.65;;;2.60;1.00;;;;;;4982517;28;20228;-78
2022/01/12 09:22:09;;;;;;;40.70;23.63;;;2.70;1.00;;;;;;4987920;28;20212;-77
2022/01/12 09:24:36;;;;;;;38.78;23.40;;;2.70;1.00;;;;;;4987557;28;20257;-78
2022/01/12 09:27:04;;;;;;;43.60;24.55;;;2.90;1.00;;;;;;4985854;28;20291;-79
2022/01/12 09:29:32;;;;;;;37.60;22.70;;;2.80;1.00;;;;;;4993730;28;20233;-78
2022/01/12 09:31:59;;;;;;;46.65;25.55;;;2.90;1.00;;;;;;4988616;28;20215;-78
2022/01/12 09:34:26;;;;;;;42.47;23.95;;;2.80;1.00;;;;;;4984993;28;20251;-82
2022/01/12 09:36:53;;;;;;;40.50;23.00;;;2.80;1.00;;;;;;4993393;28;20247;-79
2022/01/12 09:39:20;;;;;;;37.47;23.45;;;2.90;1.00;;;;;;4984220;28;20326;-83
2022/01/12 09:41:48;;;;;;;56.20;34.78;;;2.90;1.00;;;;;;4991435;28;20307;-79
2022/01/12 09:44:17;;;;;;;43.17;23.50;;;2.80;1.00;;;;;;4994107;28;20771;-77
2022/01/12 09:46:47;;;;;;;46.20;25.25;;;2.80;1.00;;;;;;4985743;28;20232;-79
2022/01/12 09:49:14;;;;;;;46.80;25.67;;;2.80;1.00;;;;;;4989733;28;20240;-81
2022/01/12 09:51:41;;;;;;;48.55;25.02;;;2.80;1.00;;;;;;4986334;28;20227;-80
2022/01/12 09:54:09;;;;;;;44.10;26.20;;;2.90;1.00;;;;;;4985011;28;21059;-80
2022/01/12 09:56:36;;;;;;;38.42;22.77;;;2.90;1.00;;;;;;4989789;28;20204;-80
2022/01/12 09:59:03;;;;;;;41.47;24.20;;;3.00;1.00;;;;;;4980798;28;20231;-79
2022/01/12 10:01:32;;;;;;;44.85;23.10;;;3.10;1.00;;;;;;4984740;28;20228;-81
2022/01/12 10:04:08;;;;;;;42.80;21.88;;;3.10;1.00;;;;;;4992880;28;20239;-80
2022/01/12 10:06:37;;;;;;;38.08;23.33;;;3.20;1.00;;;;;;5019387;28;20207;-83
2022/01/12 10:09:04;;;;;;;45.78;24.33;;;3.10;1.00;;;;;;5015844;28;20223;-85
2022/01/12 10:11:32;;;;;;;37.88;21.20;;;3.20;1.00;;;;;;5004126;28;20231;-86
2022/01/12 10:14:02;;;;;;;40.58;24.67;;;3.20;1.00;;;;;;4984297;28;21033;-79
2022/01/12 10:16:29;;;;;;;41.38;24.63;;;3.20;1.00;;;;;;4984434;28;21040;-82
2022/01/12 10:18:58;;;;;;;38.75;22.95;;;3.20;1.00;;;;;;4989899;28;20318;-80
2022/01/12 10:21:32;;;;;;;40.25;24.25;;;3.10;1.00;;;;;;5003500;28;20212;-80
2022/01/12 10:24:01;;;;;;;45.97;25.45;;;3.10;1.00;;;;;;5006546;28;20239;-81
2022/01/12 10:26:30;;;;;;;55.63;31.25;;;3.20;1.00;;;;;;4984993;28;21005;-82
2022/01/12 10:29:04;;;;;;;47.70;24.23;;;3.30;1.00;;;;;;4986289;28;20239;-82
2022/01/12 10:31:42;;;;;;;42.65;25.00;;;3.30;1.00;;;;;;4987323;28;20223;-83
2022/01/12 10:34:09;;;;;;;45.58;22.20;;;3.40;1.00;;;;;;4985596;28;20227;-82
2022/01/12 10:36:39;;;;;;;49.00;25.55;;;3.60;1.00;;;;;;4985984;28;20246;-85
2022/01/12 10:39:08;;;;;;;39.05;23.63;;;3.60;1.00;;;;;;4986735;28;20246;-86
2022/01/12 10:41:35;;;;;;;46.50;23.40;;;3.60;1.00;;;;;;4986306;28;20287;-82
2022/01/12 10:44:03;;;;;;;36.25;23.50;;;3.70;1.00;;;;;;4984913;28;20269;-81
2022/01/12 10:46:31;;;;;;;37.90;22.50;;;3.90;1.00;;;;;;4980889;28;21182;-80
2022/01/12 10:48:59;;;;;;;39.08;21.67;;;3.90;1.00;;;;;;4983069;28;20753;-80
2022/01/12 10:51:29;;;;;;;36.05;22.67;;;3.90;1.00;;;;;;4982765;28;20610;-80
2022/01/12 10:54:03;;;;;;;37.92;24.45;;;4.10;1.00;;;;;;4990078;28;20242;-79
2022/01/12 10:56:33;;;;;;;38.80;22.75;;;4.10;1.00;;;;;;4985896;28;20275;-81
2022/01/12 10:59:00;;;;;;;33.75;21.33;;;4.20;1.00;;;;;;4989296;28;20235;-82
2022/01/12 11:01:28;;;;;;;33.35;20.55;;;4.20;1.00;;;;;;4982467;28;20216;-80
2022/01/12 11:03:56;;;;;;;42.60;22.30;;;4.20;1.00;;;;;;4983688;28;20236;-81
2022/01/12 11:06:24;;;;;;;37.33;21.95;;;4.20;1.00;;;;;;4980212;28;20288;-83
2022/01/12 11:08:51;;;;;;;29.30;19.60;;;4.20;1.00;;;;;;4988094;28;20235;-82
2022/01/12 11:11:21;;;;;;;37.35;22.15;;;4.20;1.00;;;;;;4982755;28;20231;-84
2022/01/12 11:13:50;;;;;;;32.83;20.08;;;4.20;1.00;;;;;;4986483;28;20275;-82
2022/01/12 11:16:21;;;;;;;32.25;20.60;;;4.10;1.00;;;;;;4983219;28;20228;-82
2022/01/12 11:18:54;;;;;;;34.88;20.65;;;4.10;1.00;;;;;;4987996;28;20929;-83
2022/01/12 11:21:26;;;;;;;33.58;20.13;;;4.10;1.00;;;;;;4982526;28;20305;-82
2022/01/12 11:23:58;;;;;;;31.00;20.25;;;4.10;1.00;;;;;;4982482;28;20222;-82
2022/01/12 11:26:29;;;;;;;35.13;20.25;;;4.20;1.00;;;;;;4977992;28;21866;-82
2022/01/12 11:28:57;;;;;;;34.55;19.55;;;4.20;1.00;;;;;;4977429;28;21114;-79
2022/01/12 11:31:25;;;;;;;35.47;20.73;;;4.20;1.00;;;;;;4968734;28;21913;-78
2022/01/12 11:33:52;;;;;;;31.17;19.75;;;4.20;1.00;;;;;;4971600;28;20429;-81
2022/01/12 11:36:22;;;;;;;34.88;22.73;;;4.30;1.00;;;;;;4968872;28;20227;-80
2022/01/12 11:38:58;;;;;;;34.88;21.95;;;4.30;1.00;;;;;;4976169;28;21133;-80
2022/01/12 11:41:29;;;;;;;34.35;20.98;;;4.30;1.00;;;;;;4976109;28;21633;-81
2022/01/12 11:44:04;;;;;;;33.38;19.50;;;4.30;1.00;;;;;;4990782;28;21280;-80
2022/01/12 11:46:42;;;;;;;35.70;20.52;;;4.30;1.00;;;;;;4986648;28;20264;-80
2022/01/12 11:49:09;;;;;;;34.22;20.95;;;4.30;1.00;;;;;;4976456;28;20297;-81
2022/01/12 11:51:43;;;;;;;35.25;21.50;;;4.30;1.00;;;;;;4984445;28;20230;-79
2022/01/12 11:54:12;;;;;;;30.75;20.70;;;4.30;1.00;;;;;;4986379;28;20228;-81
2022/01/12 11:56:52;;;;;;;38.20;22.23;;;4.30;1.00;;;;;;4983456;28;20224;-80
2022/01/12 11:59:20;;;;;;;38.22;23.00;;;4.40;1.00;;;;;;4984223;28;20219;-79
2022/01/12 12:01:49;;;;;;;33.72;20.77;;;4.30;1.00;;;;;;4977309;28;20872;-82
2022/01/12 12:04:27;;;;;;;38.70;23.08;;;4.30;1.00;;;;;;4982875;28;20440;-80
2022/01/12 12:07:09;;;;;;;39.55;23.52;;;4.20;1.00;;;;;;4985246;28;20293;-80
2022/01/12 12:09:42;;;;;;;42.15;24.00;;;4.20;1.00;;;;;;4979062;28;20235;-80
2022/01/12 12:12:16;;;;;;;36.15;22.60;;;4.10;1.00;;;;;;4980617;28;20278;-81
2022/01/12 12:14:45;;;;;;;39.88;24.30;;;4.20;1.00;;;;;;4985803;28;20231;-80
2022/01/12 12:17:13;;;;;;;42.60;23.08;;;4.10;1.00;;;;;;4985197;28;20357;-79
2022/01/12 12:19:40;;;;;;;38.70;22.65;;;4.10;1.00;;;;;;4982806;28;20242;-80
2022/01/12 12:22:13;;;;;;;37.30;22.35;;;4.10;1.00;;;;;;4961119;28;21209;-81
2022/01/12 12:24:40;;;;;;;36.05;24.08;;;4.10;1.00;;;;;;4991158;28;20294;-79
2022/01/12 12:27:09;;;;;;;32.92;22.00;;;4.10;1.00;;;;;;4986875;28;20231;-78
2022/01/12 12:29:38;;;;;;;50.60;29.45;;;4.10;1.00;;;;;;4997927;28;20504;-79
2022/01/12 12:32:12;;;;;;;40.35;23.65;;;4.10;1.00;;;;;;4991523;28;20223;-78
2022/01/12 12:34:40;;;;;;;37.95;23.27;;;4.20;1.00;;;;;;4985769;28;20227;-78
2022/01/12 12:37:10;;;;;;;38.25;22.38;;;4.10;1.00;;;;;;4982445;28;20269;-78
2022/01/12 12:39:41;;;;;;;44.55;24.60;;;4.10;1.00;;;;;;4979930;28;20772;-79
2022/01/12 12:42:17;;;;;;;41.33;24.90;;;4.20;1.00;;;;;;4984288;28;20226;-82
2022/01/12 12:44:46;;;;;;;42.05;24.40;;;4.20;1.00;;;;;;4991335;28;20230;-80
2022/01/12 12:47:14;;;;;;;46.15;25.48;;;4.10;1.00;;;;;;4985962;28;20250;-79
2022/01/12 12:49:46;;;;;;;40.00;23.90;;;4.10;1.00;;;;;;4988452;28;20259;-81
2022/01/12 12:52:20;;;;;;;42.03;24.70;;;4.10;1.00;;;;;;4982905;28;20224;-81
2022/01/12 12:54:47;;;;;;;50.28;26.13;;;4.10;1.00;;;;;;4978488;28;21031;-79
2022/01/12 12:57:21;;;;;;;44.78;24.90;;;4.10;1.00;;;;;;4987404;28;20233;-81
2022/01/12 12:59:50;;;;;;;50.72;27.50;;;4.10;1.00;;;;;;5003312;28;20235;-78
2022/01/12 13:02:18;;;;;;;51.13;28.80;;;4.10;1.00;;;;;;4997826;28;20351;-79
2022/01/12 13:04:45;;;;;;;45.92;25.30;;;4.20;1.00;;;;;;4983308;28;20238;-81
2022/01/12 13:07:14;;;;;;;47.60;26.20;;;4.20;1.00;;;;;;4979386;28;20760;-80
2022/01/12 13:09:41;;;;;;;50.45;29.58;;;4.20;1.00;;;;;;4993622;28;20227;-79
2022/01/12 13:12:10;;;;;;;41.20;26.02;;;4.30;1.00;;;;;;4997726;28;20231;-79
2022/01/12 13:14:45;;;;;;;50.83;26.73;;;4.20;1.00;;;;;;4991009;28;20224;-80
2022/01/12 13:17:15;;;;;;;46.95;26.45;;;4.30;1.00;;;;;;4991842;28;20211;-79
2022/01/12 13:22:38;;;;;;;44.63;27.00;;;4.40;1.00;;;;;;4951024;28;21277;-84
2022/01/12 13:25:07;;;;;;;50.13;28.33;;;4.30;1.00;;;;;;4988578;28;21022;-80
2022/01/12 13:27:36;;;;;;;43.83;26.98;;;4.30;1.00;;;;;;4995144;28;20266;-79
2022/01/12 13:30:26;;;;;;;46.20;28.35;;;4.30;1.00;;;;;;4989249;28;20989;-81
2022/01/12 13:33:12;;;;;;;52.00;27.00;;;4.30;1.00;;;;;;4989961;28;20223;-85
2022/01/12 13:35:41;;;;;;;49.22;26.65;;;4.20;1.00;;;;;;4992232;28;21146;-80
2022/01/12 13:38:10;;;;;;;48.17;25.40;;;4.30;1.00;;;;;;4996660;28;20223;-78
2022/01/12 13:40:40;;;;;;;45.58;27.35;;;4.30;1.00;;;;;;5006599;28;20220;-78
2022/01/12 13:43:07;;;;;;;43.92;27.65;;;4.30;1.00;;;;;;5013622;28;20381;-81
2022/01/12 13:45:39;;;;;;;52.92;28.42;;;4.30;1.00;;;;;;5003618;28;20239;-79
2022/01/12 13:48:14;;;;;;;53.88;29.80;;;4.40;1.00;;;;;;5001012;28;20235;-81
2022/01/12 13:50:44;;;;;;;49.03;27.63;;;4.40;1.00;;;;;;5000138;28;20242;-80
2022/01/12 13:53:14;;;;;;;49.58;26.02;;;4.50;1.00;;;;;;4996586;28;20227;-79
2022/01/12 13:56:03;;;;;;;48.92;28.15;;;4.50;1.00;;;;;;4992878;28;20808;-79
2022/01/12 13:58:31;;;;;;;55.28;27.50;;;4.50;1.00;;;;;;4991382;28;20231;-79
2022/01/12 14:01:05;;;;;;;47.55;27.83;;;4.40;1.00;;;;;;4991554;28;20287;-80
2022/01/12 14:03:44;;;;;;;53.35;28.20;;;4.40;1.00;;;;;;4985942;28;20318;-79
2022/01/12 14:06:20;;;;;;;50.55;29.55;;;4.40;1.00;;;;;;4999894;28;20955;-80
2022/01/12 14:08:52;;;;;;;55.00;28.35;;;4.40;1.00;;;;;;4986670;28;20361;-79